sensor_id;sensor_type;location;lat;lon;timestamp;P1;durP1;ratioP1;P2;durP2;ratioP2
13234;SDS011;6683;48.506;9.050;2023-07-20T00:02:33;2.00;;;1.60;;
13234;SDS011;6683;48.506;9.050;2023-07-20T00:05:36;2.80;;;1.70;;
13234;SDS011;6683;48.506;9.050;2023-07-20T00:08:39;1.90;;;1.30;;
13234;SDS011;6683;48.506;9.050;2023-07-20T00:11:47;3.70;;;1.60;;
13234;SDS011;6683;48.506;9.050;2023-07-20T00:14:51;5.20;;;1.77;;
13234;SDS011;6683;48.506;9.050;2023-07-20T00:17:55;1.70;;;1.60;;
13234;SDS011;6683;48.506;9.050;2023-07-20T00:20:58;3.47;;;1.77;;
13234;SDS011;6683;48.506;9.050;2023-07-20T00:24:01;4.10;;;1.50;;
13234;SDS011;6683;48.506;9.050;2023-07-20T00:27:04;3.15;;;1.40;;
13234;SDS011;6683;48.506;9.050;2023-07-20T00:30:07;2.75;;;1.45;;
13234;SDS011;6683;48.506;9.050;2023-07-20T00:33:12;2.77;;;1.80;;
13234;SDS011;6683;48.506;9.050;2023-07-20T00:36:18;1.40;;;1.30;;
13234;SDS011;6683;48.506;9.050;2023-07-20T00:39:20;2.13;;;1.70;;
13234;SDS011;6683;48.506;9.050;2023-07-20T00:42:22;3.30;;;1.70;;
13234;SDS011;6683;48.506;9.050;2023-07-20T00:45:25;2.43;;;1.40;;
13234;SDS011;6683;48.506;9.050;2023-07-20T00:48:29;1.45;;;1.27;;
13234;SDS011;6683;48.506;9.050;2023-07-20T00:51:31;3.40;;;1.50;;
13234;SDS011;6683;48.506;9.050;2023-07-20T00:54:34;4.27;;;1.67;;
13234;SDS011;6683;48.506;9.050;2023-07-20T00:57:37;2.97;;;1.40;;
13234;SDS011;6683;48.506;9.050;2023-07-20T01:00:39;3.30;;;1.70;;
13234;SDS011;6683;48.506;9.050;2023-07-20T01:03:42;1.53;;;1.40;;
13234;SDS011;6683;48.506;9.050;2023-07-20T01:06:45;3.53;;;1.70;;
13234;SDS011;6683;48.506;9.050;2023-07-20T01:10:00;2.00;;;1.77;;
13234;SDS011;6683;48.506;9.050;2023-07-20T01:13:10;1.97;;;1.57;;
13234;SDS011;6683;48.506;9.050;2023-07-20T01:16:15;2.30;;;1.80;;
13234;SDS011;6683;48.506;9.050;2023-07-20T01:19:19;1.70;;;1.60;;
13234;SDS011;6683;48.506;9.050;2023-07-20T01:22:28;1.83;;;1.63;;
13234;SDS011;6683;48.506;9.050;2023-07-20T01:25:58;2.83;;;1.83;;
13234;SDS011;6683;48.506;9.050;2023-07-20T01:29:42;1.70;;;1.60;;
13234;SDS011;6683;48.506;9.050;2023-07-20T01:33:03;1.73;;;1.63;;
13234;SDS011;6683;48.506;9.050;2023-07-20T01:36:07;2.63;;;1.63;;
13234;SDS011;6683;48.506;9.050;2023-07-20T01:39:10;4.53;;;1.80;;
13234;SDS011;6683;48.506;9.050;2023-07-20T01:42:13;1.50;;;1.40;;
13234;SDS011;6683;48.506;9.050;2023-07-20T01:45:15;1.70;;;1.60;;
13234;SDS011;6683;48.506;9.050;2023-07-20T01:48:19;2.10;;;1.83;;
13234;SDS011;6683;48.506;9.050;2023-07-20T01:51:24;2.97;;;2.07;;
13234;SDS011;6683;48.506;9.050;2023-07-20T01:54:26;1.87;;;1.63;;
13234;SDS011;6683;48.506;9.050;2023-07-20T01:57:28;2.33;;;1.63;;
13234;SDS011;6683;48.506;9.050;2023-07-20T02:00:30;4.30;;;1.60;;
13234;SDS011;6683;48.506;9.050;2023-07-20T02:03:34;4.23;;;1.77;;
13234;SDS011;6683;48.506;9.050;2023-07-20T02:06:36;2.00;;;1.80;;
13234;SDS011;6683;48.506;9.050;2023-07-20T02:09:38;1.67;;;1.57;;
13234;SDS011;6683;48.506;9.050;2023-07-20T02:12:40;3.00;;;1.67;;
13234;SDS011;6683;48.506;9.050;2023-07-20T02:15:42;2.20;;;1.80;;
13234;SDS011;6683;48.506;9.050;2023-07-20T02:18:46;1.80;;;1.67;;
13234;SDS011;6683;48.506;9.050;2023-07-20T02:21:48;2.30;;;1.90;;
13234;SDS011;6683;48.506;9.050;2023-07-20T02:24:51;2.60;;;1.93;;
13234;SDS011;6683;48.506;9.050;2023-07-20T02:27:53;3.10;;;1.70;;
13234;SDS011;6683;48.506;9.050;2023-07-20T02:30:58;2.10;;;1.63;;
13234;SDS011;6683;48.506;9.050;2023-07-20T02:34:02;1.87;;;1.60;;
13234;SDS011;6683;48.506;9.050;2023-07-20T02:37:04;4.33;;;1.97;;
13234;SDS011;6683;48.506;9.050;2023-07-20T02:40:07;1.80;;;1.47;;
13234;SDS011;6683;48.506;9.050;2023-07-20T02:43:11;1.93;;;1.70;;
13234;SDS011;6683;48.506;9.050;2023-07-20T02:46:13;3.77;;;1.70;;
13234;SDS011;6683;48.506;9.050;2023-07-20T02:49:16;2.30;;;1.80;;
13234;SDS011;6683;48.506;9.050;2023-07-20T02:52:18;2.07;;;1.80;;
13234;SDS011;6683;48.506;9.050;2023-07-20T02:55:21;2.23;;;1.90;;
13234;SDS011;6683;48.506;9.050;2023-07-20T02:58:23;4.17;;;1.80;;
13234;SDS011;6683;48.506;9.050;2023-07-20T03:01:25;2.00;;;1.50;;
13234;SDS011;6683;48.506;9.050;2023-07-20T03:04:30;2.00;;;1.80;;
13234;SDS011;6683;48.506;9.050;2023-07-20T03:07:32;3.10;;;2.00;;
13234;SDS011;6683;48.506;9.050;2023-07-20T03:10:38;2.77;;;1.90;;
13234;SDS011;6683;48.506;9.050;2023-07-20T03:13:42;2.53;;;1.90;;
13234;SDS011;6683;48.506;9.050;2023-07-20T03:16:44;2.40;;;2.03;;
13234;SDS011;6683;48.506;9.050;2023-07-20T03:19:48;1.90;;;1.80;;
13234;SDS011;6683;48.506;9.050;2023-07-20T03:22:50;3.23;;;2.10;;
13234;SDS011;6683;48.506;9.050;2023-07-20T03:25:52;2.63;;;2.03;;
13234;SDS011;6683;48.506;9.050;2023-07-20T03:28:55;3.07;;;2.07;;
13234;SDS011;6683;48.506;9.050;2023-07-20T03:31:57;2.87;;;1.90;;
13234;SDS011;6683;48.506;9.050;2023-07-20T03:35:02;2.43;;;1.87;;
13234;SDS011;6683;48.506;9.050;2023-07-20T03:38:04;2.20;;;2.00;;
13234;SDS011;6683;48.506;9.050;2023-07-20T03:41:07;2.57;;;2.10;;
13234;SDS011;6683;48.506;9.050;2023-07-20T03:44:09;3.30;;;2.13;;
13234;SDS011;6683;48.506;9.050;2023-07-20T03:47:11;3.83;;;1.90;;
13234;SDS011;6683;48.506;9.050;2023-07-20T03:50:15;2.60;;;2.40;;
13234;SDS011;6683;48.506;9.050;2023-07-20T03:53:17;2.30;;;2.10;;
13234;SDS011;6683;48.506;9.050;2023-07-20T03:56:20;3.43;;;2.07;;
13234;SDS011;6683;48.506;9.050;2023-07-20T03:59:23;2.40;;;2.20;;
13234;SDS011;6683;48.506;9.050;2023-07-20T04:02:25;1.87;;;1.73;;
13234;SDS011;6683;48.506;9.050;2023-07-20T04:05:28;3.57;;;2.20;;
13234;SDS011;6683;48.506;9.050;2023-07-20T04:08:30;3.40;;;2.00;;
13234;SDS011;6683;48.506;9.050;2023-07-20T04:11:33;2.23;;;1.97;;
13234;SDS011;6683;48.506;9.050;2023-07-20T04:14:35;1.93;;;1.67;;
13234;SDS011;6683;48.506;9.050;2023-07-20T04:17:37;2.23;;;1.90;;
13234;SDS011;6683;48.506;9.050;2023-07-20T04:20:42;3.30;;;1.80;;
13234;SDS011;6683;48.506;9.050;2023-07-20T04:23:44;1.90;;;1.70;;
13234;SDS011;6683;48.506;9.050;2023-07-20T04:26:46;2.77;;;2.10;;
13234;SDS011;6683;48.506;9.050;2023-07-20T04:29:49;2.50;;;2.30;;
13234;SDS011;6683;48.506;9.050;2023-07-20T04:32:51;3.10;;;2.00;;
13234;SDS011;6683;48.506;9.050;2023-07-20T04:35:55;3.43;;;2.60;;
13234;SDS011;6683;48.506;9.050;2023-07-20T04:38:57;3.40;;;2.10;;
13234;SDS011;6683;48.506;9.050;2023-07-20T04:41:59;2.67;;;2.10;;
13234;SDS011;6683;48.506;9.050;2023-07-20T04:45:01;2.80;;;2.03;;
13234;SDS011;6683;48.506;9.050;2023-07-20T04:48:06;2.43;;;2.10;;
13234;SDS011;6683;48.506;9.050;2023-07-20T04:51:14;2.93;;;1.90;;
13234;SDS011;6683;48.506;9.050;2023-07-20T04:54:17;3.50;;;2.80;;
13234;SDS011;6683;48.506;9.050;2023-07-20T04:57:19;2.60;;;2.00;;
13234;SDS011;6683;48.506;9.050;2023-07-20T05:00:25;3.73;;;2.50;;
13234;SDS011;6683;48.506;9.050;2023-07-20T05:03:27;3.23;;;2.10;;
13234;SDS011;6683;48.506;9.050;2023-07-20T05:06:31;1.97;;;1.77;;
13234;SDS011;6683;48.506;9.050;2023-07-20T05:09:34;3.70;;;2.17;;
13234;SDS011;6683;48.506;9.050;2023-07-20T05:12:36;4.83;;;2.50;;
13234;SDS011;6683;48.506;9.050;2023-07-20T05:15:39;2.20;;;1.97;;
13234;SDS011;6683;48.506;9.050;2023-07-20T05:18:41;2.23;;;2.03;;
13234;SDS011;6683;48.506;9.050;2023-07-20T05:21:44;2.20;;;2.00;;
13234;SDS011;6683;48.506;9.050;2023-07-20T05:24:46;3.83;;;2.37;;
13234;SDS011;6683;48.506;9.050;2023-07-20T05:27:49;2.30;;;2.00;;
13234;SDS011;6683;48.506;9.050;2023-07-20T05:30:51;2.93;;;2.10;;
13234;SDS011;6683;48.506;9.050;2023-07-20T05:33:53;3.50;;;2.40;;
13234;SDS011;6683;48.506;9.050;2023-07-20T05:36:57;2.77;;;2.03;;
13234;SDS011;6683;48.506;9.050;2023-07-20T05:39:59;4.17;;;2.07;;
13234;SDS011;6683;48.506;9.050;2023-07-20T05:43:01;3.60;;;2.10;;
13234;SDS011;6683;48.506;9.050;2023-07-20T05:46:04;2.47;;;1.97;;
13234;SDS011;6683;48.506;9.050;2023-07-20T05:49:06;2.33;;;1.80;;
13234;SDS011;6683;48.506;9.050;2023-07-20T05:52:10;2.10;;;1.90;;
13234;SDS011;6683;48.506;9.050;2023-07-20T05:55:12;2.77;;;2.30;;
13234;SDS011;6683;48.506;9.050;2023-07-20T05:58:14;3.10;;;2.03;;
13234;SDS011;6683;48.506;9.050;2023-07-20T06:01:17;1.97;;;1.87;;
13234;SDS011;6683;48.506;9.050;2023-07-20T06:04:19;2.67;;;2.03;;
13234;SDS011;6683;48.506;9.050;2023-07-20T06:07:22;2.23;;;1.77;;
13234;SDS011;6683;48.506;9.050;2023-07-20T06:10:24;2.17;;;1.97;;
13234;SDS011;6683;48.506;9.050;2023-07-20T06:13:27;1.70;;;1.60;;
13234;SDS011;6683;48.506;9.050;2023-07-20T06:16:29;2.10;;;1.83;;
13234;SDS011;6683;48.506;9.050;2023-07-20T06:19:31;2.57;;;1.80;;
13234;SDS011;6683;48.506;9.050;2023-07-20T06:22:35;4.77;;;1.80;;
13234;SDS011;6683;48.506;9.050;2023-07-20T06:25:37;3.83;;;1.97;;
13234;SDS011;6683;48.506;9.050;2023-07-20T06:28:39;3.23;;;2.20;;
13234;SDS011;6683;48.506;9.050;2023-07-20T06:31:41;3.33;;;1.60;;
13234;SDS011;6683;48.506;9.050;2023-07-20T06:34:43;4.27;;;2.00;;
13234;SDS011;6683;48.506;9.050;2023-07-20T06:37:46;2.53;;;2.10;;
13234;SDS011;6683;48.506;9.050;2023-07-20T06:40:48;2.80;;;1.93;;
13234;SDS011;6683;48.506;9.050;2023-07-20T06:43:51;2.80;;;1.97;;
13234;SDS011;6683;48.506;9.050;2023-07-20T06:46:58;3.93;;;1.93;;
13234;SDS011;6683;48.506;9.050;2023-07-20T06:50:00;4.17;;;2.10;;
13234;SDS011;6683;48.506;9.050;2023-07-20T06:53:04;2.80;;;1.60;;
13234;SDS011;6683;48.506;9.050;2023-07-20T06:56:06;4.10;;;2.03;;
13234;SDS011;6683;48.506;9.050;2023-07-20T06:59:08;3.63;;;1.87;;
13234;SDS011;6683;48.506;9.050;2023-07-20T07:02:10;3.00;;;2.17;;
13234;SDS011;6683;48.506;9.050;2023-07-20T07:05:14;2.03;;;1.83;;
13234;SDS011;6683;48.506;9.050;2023-07-20T07:08:18;3.13;;;1.87;;
13234;SDS011;6683;48.506;9.050;2023-07-20T07:11:20;2.13;;;1.93;;
13234;SDS011;6683;48.506;9.050;2023-07-20T07:14:23;2.97;;;1.90;;
13234;SDS011;6683;48.506;9.050;2023-07-20T07:17:25;3.27;;;2.00;;
13234;SDS011;6683;48.506;9.050;2023-07-20T07:20:28;2.43;;;1.80;;
13234;SDS011;6683;48.506;9.050;2023-07-20T07:23:31;2.80;;;1.80;;
13234;SDS011;6683;48.506;9.050;2023-07-20T07:26:33;2.67;;;1.70;;
13234;SDS011;6683;48.506;9.050;2023-07-20T07:29:36;2.83;;;1.67;;
13234;SDS011;6683;48.506;9.050;2023-07-20T07:32:38;2.90;;;1.87;;
13234;SDS011;6683;48.506;9.050;2023-07-20T07:35:41;4.30;;;2.03;;
13234;SDS011;6683;48.506;9.050;2023-07-20T07:38:45;2.70;;;1.70;;
13234;SDS011;6683;48.506;9.050;2023-07-20T07:41:47;2.13;;;1.50;;
13234;SDS011;6683;48.506;9.050;2023-07-20T07:44:49;1.63;;;1.40;;
13234;SDS011;6683;48.506;9.050;2023-07-20T07:47:52;2.22;;;1.60;;
13234;SDS011;6683;48.506;9.050;2023-07-20T07:50:54;2.78;;;1.90;;
13234;SDS011;6683;48.506;9.050;2023-07-20T07:53:58;3.42;;;1.77;;
13234;SDS011;6683;48.506;9.050;2023-07-20T07:57:00;2.97;;;1.75;;
13234;SDS011;6683;48.506;9.050;2023-07-20T08:00:03;2.58;;;1.60;;
13234;SDS011;6683;48.506;9.050;2023-07-20T08:03:10;1.83;;;1.70;;
13234;SDS011;6683;48.506;9.050;2023-07-20T08:06:13;2.70;;;2.03;;
13234;SDS011;6683;48.506;9.050;2023-07-20T08:09:17;3.03;;;2.15;;
13234;SDS011;6683;48.506;9.050;2023-07-20T08:12:19;3.30;;;2.05;;
13234;SDS011;6683;48.506;9.050;2023-07-20T08:15:21;2.38;;;1.63;;
13234;SDS011;6683;48.506;9.050;2023-07-20T08:18:24;3.83;;;1.65;;
13234;SDS011;6683;48.506;9.050;2023-07-20T08:21:26;2.60;;;1.88;;
13234;SDS011;6683;48.506;9.050;2023-07-20T08:24:30;2.22;;;1.67;;
13234;SDS011;6683;48.506;9.050;2023-07-20T08:27:32;2.28;;;1.75;;
13234;SDS011;6683;48.506;9.050;2023-07-20T08:30:39;2.58;;;1.73;;
13234;SDS011;6683;48.506;9.050;2023-07-20T08:33:42;3.15;;;1.73;;
13234;SDS011;6683;48.506;9.050;2023-07-20T08:36:45;2.13;;;1.67;;
13234;SDS011;6683;48.506;9.050;2023-07-20T08:39:49;2.83;;;1.55;;
13234;SDS011;6683;48.506;9.050;2023-07-20T08:42:52;2.30;;;1.73;;
13234;SDS011;6683;48.506;9.050;2023-07-20T08:45:55;2.22;;;1.70;;
13234;SDS011;6683;48.506;9.050;2023-07-20T08:48:58;2.38;;;1.90;;
13234;SDS011;6683;48.506;9.050;2023-07-20T08:52:02;3.83;;;1.60;;
13234;SDS011;6683;48.506;9.050;2023-07-20T08:55:07;5.07;;;1.67;;
13234;SDS011;6683;48.506;9.050;2023-07-20T08:58:11;7.80;;;1.75;;
13234;SDS011;6683;48.506;9.050;2023-07-20T09:01:15;2.10;;;1.73;;
13234;SDS011;6683;48.506;9.050;2023-07-20T09:04:22;1.58;;;1.40;;
13234;SDS011;6683;48.506;9.050;2023-07-20T09:07:30;2.85;;;1.80;;
13234;SDS011;6683;48.506;9.050;2023-07-20T09:10:39;2.97;;;1.80;;
13234;SDS011;6683;48.506;9.050;2023-07-20T09:13:42;2.53;;;1.67;;
13234;SDS011;6683;48.506;9.050;2023-07-20T09:16:47;3.08;;;1.83;;
13234;SDS011;6683;48.506;9.050;2023-07-20T09:19:51;2.28;;;1.48;;
13234;SDS011;6683;48.506;9.050;2023-07-20T09:22:53;2.42;;;1.50;;
13234;SDS011;6683;48.506;9.050;2023-07-20T09:25:57;1.60;;;1.50;;
13234;SDS011;6683;48.506;9.050;2023-07-20T09:29:00;2.05;;;1.55;;
13234;SDS011;6683;48.506;9.050;2023-07-20T09:32:03;2.92;;;1.90;;
13234;SDS011;6683;48.506;9.050;2023-07-20T09:35:06;1.67;;;1.35;;
13234;SDS011;6683;48.506;9.050;2023-07-20T09:38:16;2.40;;;1.20;;
13234;SDS011;6683;48.506;9.050;2023-07-20T09:41:20;2.45;;;1.48;;
13234;SDS011;6683;48.506;9.050;2023-07-20T09:44:23;1.52;;;1.20;;
13234;SDS011;6683;48.506;9.050;2023-07-20T09:47:25;2.15;;;1.40;;
13234;SDS011;6683;48.506;9.050;2023-07-20T09:50:29;2.05;;;1.08;;
13234;SDS011;6683;48.506;9.050;2023-07-20T09:53:32;1.40;;;1.30;;
13234;SDS011;6683;48.506;9.050;2023-07-20T09:56:37;1.63;;;1.30;;
13234;SDS011;6683;48.506;9.050;2023-07-20T09:59:41;1.67;;;1.10;;
13234;SDS011;6683;48.506;9.050;2023-07-20T10:02:44;1.65;;;1.30;;
13234;SDS011;6683;48.506;9.050;2023-07-20T10:05:48;1.25;;;1.10;;
13234;SDS011;6683;48.506;9.050;2023-07-20T10:08:55;1.40;;;1.30;;
13234;SDS011;6683;48.506;9.050;2023-07-20T10:12:06;1.33;;;1.23;;
13234;SDS011;6683;48.506;9.050;2023-07-20T10:15:15;1.27;;;1.17;;
13234;SDS011;6683;48.506;9.050;2023-07-20T10:18:22;1.20;;;1.10;;
13234;SDS011;6683;48.506;9.050;2023-07-20T10:21:30;1.55;;;1.20;;
13234;SDS011;6683;48.506;9.050;2023-07-20T10:24:34;1.23;;;1.10;;
13234;SDS011;6683;48.506;9.050;2023-07-20T10:27:39;1.17;;;0.93;;
13234;SDS011;6683;48.506;9.050;2023-07-20T10:30:41;2.03;;;1.15;;
13234;SDS011;6683;48.506;9.050;2023-07-20T10:33:44;1.35;;;1.20;;
13234;SDS011;6683;48.506;9.050;2023-07-20T10:36:48;1.30;;;1.20;;
13234;SDS011;6683;48.506;9.050;2023-07-20T10:39:52;1.92;;;1.30;;
13234;SDS011;6683;48.506;9.050;2023-07-20T10:42:59;7.25;;;1.25;;
13234;SDS011;6683;48.506;9.050;2023-07-20T10:46:04;1.63;;;1.10;;
13234;SDS011;6683;48.506;9.050;2023-07-20T10:49:07;1.63;;;1.10;;
13234;SDS011;6683;48.506;9.050;2023-07-20T10:52:11;1.58;;;1.08;;
13234;SDS011;6683;48.506;9.050;2023-07-20T10:55:14;1.30;;;1.20;;
13234;SDS011;6683;48.506;9.050;2023-07-20T10:58:18;1.40;;;1.17;;
13234;SDS011;6683;48.506;9.050;2023-07-20T11:01:29;2.45;;;1.23;;
13234;SDS011;6683;48.506;9.050;2023-07-20T11:04:38;1.60;;;1.05;;
13234;SDS011;6683;48.506;9.050;2023-07-20T11:07:41;2.03;;;1.40;;
13234;SDS011;6683;48.506;9.050;2023-07-20T11:10:43;1.23;;;1.10;;
13234;SDS011;6683;48.506;9.050;2023-07-20T11:13:54;1.30;;;1.05;;
13234;SDS011;6683;48.506;9.050;2023-07-20T11:16:58;2.17;;;1.08;;
13234;SDS011;6683;48.506;9.050;2023-07-20T11:20:13;1.42;;;1.13;;
13234;SDS011;6683;48.506;9.050;2023-07-20T11:23:17;1.88;;;1.10;;
13234;SDS011;6683;48.506;9.050;2023-07-20T11:26:21;1.60;;;1.15;;
13234;SDS011;6683;48.506;9.050;2023-07-20T11:29:24;1.08;;;1.02;;
13234;SDS011;6683;48.506;9.050;2023-07-20T11:32:27;1.30;;;1.20;;
13234;SDS011;6683;48.506;9.050;2023-07-20T11:35:29;1.27;;;1.17;;
13234;SDS011;6683;48.506;9.050;2023-07-20T11:38:32;1.58;;;1.15;;
13234;SDS011;6683;48.506;9.050;2023-07-20T11:41:34;1.00;;;0.90;;
13234;SDS011;6683;48.506;9.050;2023-07-20T11:44:39;1.60;;;1.20;;
13234;SDS011;6683;48.506;9.050;2023-07-20T11:47:41;1.35;;;1.10;;
13234;SDS011;6683;48.506;9.050;2023-07-20T11:50:44;1.10;;;1.10;;
13234;SDS011;6683;48.506;9.050;2023-07-20T11:53:46;3.15;;;1.20;;
13234;SDS011;6683;48.506;9.050;2023-07-20T11:56:49;1.70;;;1.00;;
13234;SDS011;6683;48.506;9.050;2023-07-20T11:59:58;1.17;;;1.08;;
13234;SDS011;6683;48.506;9.050;2023-07-20T12:03:09;1.65;;;1.10;;
13234;SDS011;6683;48.506;9.050;2023-07-20T12:06:12;1.48;;;1.10;;
13234;SDS011;6683;48.506;9.050;2023-07-20T12:09:16;1.80;;;1.20;;
13234;SDS011;6683;48.506;9.050;2023-07-20T12:12:19;1.45;;;1.20;;
13234;SDS011;6683;48.506;9.050;2023-07-20T12:15:23;1.63;;;1.00;;
13234;SDS011;6683;48.506;9.050;2023-07-20T12:18:34;1.35;;;1.02;;
13234;SDS011;6683;48.506;9.050;2023-07-20T12:21:37;1.73;;;1.05;;
13234;SDS011;6683;48.506;9.050;2023-07-20T12:24:41;1.10;;;0.98;;
13234;SDS011;6683;48.506;9.050;2023-07-20T12:27:44;3.45;;;1.30;;
13234;SDS011;6683;48.506;9.050;2023-07-20T12:30:48;2.15;;;1.00;;
13234;SDS011;6683;48.506;9.050;2023-07-20T12:33:57;1.90;;;1.08;;
13234;SDS011;6683;48.506;9.050;2023-07-20T12:37:02;1.30;;;1.20;;
13234;SDS011;6683;48.506;9.050;2023-07-20T12:40:06;1.17;;;1.08;;
13234;SDS011;6683;48.506;9.050;2023-07-20T12:43:10;1.25;;;1.15;;
13234;SDS011;6683;48.506;9.050;2023-07-20T12:46:14;1.20;;;1.10;;
13234;SDS011;6683;48.506;9.050;2023-07-20T12:49:16;1.08;;;1.00;;
13234;SDS011;6683;48.506;9.050;2023-07-20T12:52:19;1.15;;;1.05;;
13234;SDS011;6683;48.506;9.050;2023-07-20T12:55:21;1.02;;;0.98;;
13234;SDS011;6683;48.506;9.050;2023-07-20T12:58:23;1.70;;;1.20;;
13234;SDS011;6683;48.506;9.050;2023-07-20T13:01:27;1.20;;;1.10;;
13234;SDS011;6683;48.506;9.050;2023-07-20T13:04:30;1.10;;;1.00;;
13234;SDS011;6683;48.506;9.050;2023-07-20T13:07:33;1.38;;;1.27;;
13234;SDS011;6683;48.506;9.050;2023-07-20T13:10:37;1.00;;;1.00;;
13234;SDS011;6683;48.506;9.050;2023-07-20T13:13:39;1.33;;;1.23;;
13234;SDS011;6683;48.506;9.050;2023-07-20T13:16:43;1.70;;;1.20;;
13234;SDS011;6683;48.506;9.050;2023-07-20T13:19:45;1.02;;;1.02;;
13234;SDS011;6683;48.506;9.050;2023-07-20T13:22:48;0.88;;;0.88;;
13234;SDS011;6683;48.506;9.050;2023-07-20T13:25:50;2.08;;;1.45;;
13234;SDS011;6683;48.506;9.050;2023-07-20T13:28:53;1.42;;;1.20;;
13234;SDS011;6683;48.506;9.050;2023-07-20T13:31:56;1.20;;;1.10;;
13234;SDS011;6683;48.506;9.050;2023-07-20T13:34:59;1.10;;;1.05;;
13234;SDS011;6683;48.506;9.050;2023-07-20T13:38:01;3.03;;;1.52;;
13234;SDS011;6683;48.506;9.050;2023-07-20T13:41:03;1.30;;;1.20;;
13234;SDS011;6683;48.506;9.050;2023-07-20T13:44:05;1.30;;;1.20;;
13234;SDS011;6683;48.506;9.050;2023-07-20T13:47:09;2.15;;;1.20;;
13234;SDS011;6683;48.506;9.050;2023-07-20T13:50:12;1.58;;;1.10;;
13234;SDS011;6683;48.506;9.050;2023-07-20T13:53:14;1.70;;;1.05;;
13234;SDS011;6683;48.506;9.050;2023-07-20T13:56:16;1.30;;;1.20;;
13234;SDS011;6683;48.506;9.050;2023-07-20T13:59:18;2.33;;;1.00;;
13234;SDS011;6683;48.506;9.050;2023-07-20T14:02:22;1.23;;;1.05;;
13234;SDS011;6683;48.506;9.050;2023-07-20T14:05:25;1.17;;;1.10;;
13234;SDS011;6683;48.506;9.050;2023-07-20T14:08:28;2.50;;;1.42;;
13234;SDS011;6683;48.506;9.050;2023-07-20T14:11:30;1.63;;;1.05;;
13234;SDS011;6683;48.506;9.050;2023-07-20T14:14:32;1.27;;;1.17;;
13234;SDS011;6683;48.506;9.050;2023-07-20T14:17:36;0.95;;;0.95;;
13234;SDS011;6683;48.506;9.050;2023-07-20T14:20:38;1.52;;;1.30;;
13234;SDS011;6683;48.506;9.050;2023-07-20T14:23:41;1.33;;;1.23;;
13234;SDS011;6683;48.506;9.050;2023-07-20T14:26:43;1.27;;;1.02;;
13234;SDS011;6683;48.506;9.050;2023-07-20T14:29:45;1.42;;;1.27;;
13234;SDS011;6683;48.506;9.050;2023-07-20T14:32:49;1.20;;;1.10;;
13234;SDS011;6683;48.506;9.050;2023-07-20T14:35:51;2.20;;;1.05;;
13234;SDS011;6683;48.506;9.050;2023-07-20T14:38:53;1.15;;;1.02;;
13234;SDS011;6683;48.506;9.050;2023-07-20T14:41:55;1.10;;;1.00;;
13234;SDS011;6683;48.506;9.050;2023-07-20T14:44:58;1.33;;;1.20;;
13234;SDS011;6683;48.506;9.050;2023-07-20T14:48:02;1.70;;;1.42;;
13234;SDS011;6683;48.506;9.050;2023-07-20T14:51:04;1.58;;;1.40;;
13234;SDS011;6683;48.506;9.050;2023-07-20T14:54:06;1.10;;;1.10;;
13234;SDS011;6683;48.506;9.050;2023-07-20T14:57:09;1.15;;;1.05;;
13234;SDS011;6683;48.506;9.050;2023-07-20T15:00:14;2.75;;;1.10;;
13234;SDS011;6683;48.506;9.050;2023-07-20T15:03:21;1.20;;;1.13;;
13234;SDS011;6683;48.506;9.050;2023-07-20T15:06:23;1.25;;;1.15;;
13234;SDS011;6683;48.506;9.050;2023-07-20T15:09:26;2.85;;;1.60;;
13234;SDS011;6683;48.506;9.050;2023-07-20T15:12:28;1.83;;;1.20;;
13234;SDS011;6683;48.506;9.050;2023-07-20T15:15:31;1.35;;;1.25;;
13234;SDS011;6683;48.506;9.050;2023-07-20T15:18:35;1.20;;;1.10;;
13234;SDS011;6683;48.506;9.050;2023-07-20T15:21:37;1.88;;;1.48;;
13234;SDS011;6683;48.506;9.050;2023-07-20T15:24:39;1.45;;;1.35;;
13234;SDS011;6683;48.506;9.050;2023-07-20T15:27:41;1.25;;;1.00;;
13234;SDS011;6683;48.506;9.050;2023-07-20T15:30:43;1.92;;;0.88;;
13234;SDS011;6683;48.506;9.050;2023-07-20T15:33:47;1.40;;;1.30;;
13234;SDS011;6683;48.506;9.050;2023-07-20T15:36:49;1.58;;;1.20;;
13234;SDS011;6683;48.506;9.050;2023-07-20T15:39:52;1.38;;;1.10;;
13234;SDS011;6683;48.506;9.050;2023-07-20T15:42:54;1.77;;;1.23;;
13234;SDS011;6683;48.506;9.050;2023-07-20T15:46:00;1.10;;;1.00;;
13234;SDS011;6683;48.506;9.050;2023-07-20T15:49:30;1.35;;;1.25;;
13234;SDS011;6683;48.506;9.050;2023-07-20T15:52:33;1.40;;;1.27;;
13234;SDS011;6683;48.506;9.050;2023-07-20T15:55:35;1.45;;;1.30;;
13234;SDS011;6683;48.506;9.050;2023-07-20T15:58:38;1.58;;;1.20;;
13234;SDS011;6683;48.506;9.050;2023-07-20T16:01:40;1.40;;;1.30;;
13234;SDS011;6683;48.506;9.050;2023-07-20T16:04:43;2.03;;;1.38;;
13234;SDS011;6683;48.506;9.050;2023-07-20T16:07:46;2.17;;;1.30;;
13234;SDS011;6683;48.506;9.050;2023-07-20T16:10:49;1.67;;;1.17;;
13234;SDS011;6683;48.506;9.050;2023-07-20T16:13:55;1.45;;;1.35;;
13234;SDS011;6683;48.506;9.050;2023-07-20T16:16:57;1.15;;;1.05;;
13234;SDS011;6683;48.506;9.050;2023-07-20T16:20:03;1.85;;;1.27;;
13234;SDS011;6683;48.506;9.050;2023-07-20T16:23:07;1.23;;;1.00;;
13234;SDS011;6683;48.506;9.050;2023-07-20T16:26:09;1.48;;;1.00;;
13234;SDS011;6683;48.506;9.050;2023-07-20T16:29:12;1.25;;;1.02;;
13234;SDS011;6683;48.506;9.050;2023-07-20T16:32:15;1.83;;;1.20;;
13234;SDS011;6683;48.506;9.050;2023-07-20T16:35:19;1.50;;;1.00;;
13234;SDS011;6683;48.506;9.050;2023-07-20T16:38:21;1.50;;;1.27;;
13234;SDS011;6683;48.506;9.050;2023-07-20T16:41:23;1.20;;;1.10;;
13234;SDS011;6683;48.506;9.050;2023-07-20T16:44:25;3.17;;;1.10;;
13234;SDS011;6683;48.506;9.050;2023-07-20T16:47:28;1.80;;;1.23;;
13234;SDS011;6683;48.506;9.050;2023-07-20T16:50:32;1.67;;;1.50;;
13234;SDS011;6683;48.506;9.050;2023-07-20T16:53:34;1.48;;;1.33;;
13234;SDS011;6683;48.506;9.050;2023-07-20T16:56:36;1.10;;;1.00;;
13234;SDS011;6683;48.506;9.050;2023-07-20T16:59:40;1.63;;;1.10;;
13234;SDS011;6683;48.506;9.050;2023-07-20T17:02:42;1.00;;;1.00;;
13234;SDS011;6683;48.506;9.050;2023-07-20T17:05:46;1.13;;;0.90;;
13234;SDS011;6683;48.506;9.050;2023-07-20T17:08:48;1.65;;;1.38;;
13234;SDS011;6683;48.506;9.050;2023-07-20T17:11:51;1.60;;;1.08;;
13234;SDS011;6683;48.506;9.050;2023-07-20T17:14:53;1.40;;;1.30;;
13234;SDS011;6683;48.506;9.050;2023-07-20T17:17:55;1.15;;;1.05;;
13234;SDS011;6683;48.506;9.050;2023-07-20T17:20:59;1.17;;;1.08;;
13234;SDS011;6683;48.506;9.050;2023-07-20T17:24:01;2.92;;;0.88;;
13234;SDS011;6683;48.506;9.050;2023-07-20T17:27:04;1.08;;;0.98;;
13234;SDS011;6683;48.506;9.050;2023-07-20T17:30:07;1.27;;;1.00;;
13234;SDS011;6683;48.506;9.050;2023-07-20T17:33:10;1.60;;;1.08;;
13234;SDS011;6683;48.506;9.050;2023-07-20T17:36:16;1.23;;;1.00;;
13234;SDS011;6683;48.506;9.050;2023-07-20T17:39:19;1.70;;;1.42;;
13234;SDS011;6683;48.506;9.050;2023-07-20T17:42:21;1.10;;;1.00;;
13234;SDS011;6683;48.506;9.050;2023-07-20T17:45:23;1.33;;;1.23;;
13234;SDS011;6683;48.506;9.050;2023-07-20T17:48:26;1.48;;;1.38;;
13234;SDS011;6683;48.506;9.050;2023-07-20T17:51:30;1.83;;;1.20;;
13234;SDS011;6683;48.506;9.050;2023-07-20T17:54:32;1.20;;;1.00;;
13234;SDS011;6683;48.506;9.050;2023-07-20T17:57:34;1.20;;;1.10;;
13234;SDS011;6683;48.506;9.050;2023-07-20T18:00:36;1.02;;;0.80;;
13234;SDS011;6683;48.506;9.050;2023-07-20T18:03:38;1.75;;;1.10;;
13234;SDS011;6683;48.506;9.050;2023-07-20T18:06:42;1.55;;;1.30;;
13234;SDS011;6683;48.506;9.050;2023-07-20T18:09:44;1.00;;;0.90;;
13234;SDS011;6683;48.506;9.050;2023-07-20T18:12:47;1.08;;;1.00;;
13234;SDS011;6683;48.506;9.050;2023-07-20T18:15:53;1.30;;;1.20;;
13234;SDS011;6683;48.506;9.050;2023-07-20T18:18:56;1.52;;;1.10;;
13234;SDS011;6683;48.506;9.050;2023-07-20T18:21:59;1.10;;;1.00;;
13234;SDS011;6683;48.506;9.050;2023-07-20T18:25:01;0.88;;;0.88;;
13234;SDS011;6683;48.506;9.050;2023-07-20T18:28:04;1.00;;;1.00;;
13234;SDS011;6683;48.506;9.050;2023-07-20T18:31:07;0.90;;;0.90;;
13234;SDS011;6683;48.506;9.050;2023-07-20T18:34:09;1.10;;;1.00;;
13234;SDS011;6683;48.506;9.050;2023-07-20T18:37:14;1.08;;;0.98;;
13234;SDS011;6683;48.506;9.050;2023-07-20T18:40:19;4.38;;;1.00;;
13234;SDS011;6683;48.506;9.050;2023-07-20T18:43:21;1.20;;;1.10;;